sensor_id;sensor_type;location;lat;lon;timestamp;pressure;altitude;pressure_sealevel;temperature;humidity
84821;BME280;75463;50.988;11.332;2024-03-22T00:01:48;99485.44;;;4.67;87.96
84821;BME280;75463;50.988;11.332;2024-03-22T00:04:14;99479.72;;;4.58;88.19
84821;BME280;75463;50.988;11.332;2024-03-22T00:06:44;99470.56;;;4.49;88.67
84821;BME280;75463;50.988;11.332;2024-03-22T00:09:10;99482.97;;;4.44;88.57
84821;BME280;75463;50.988;11.332;2024-03-22T00:11:36;99482.09;;;4.39;88.81
84821;BME280;75463;50.988;11.332;2024-03-22T00:14:02;99482.25;;;4.32;89.36
84821;BME280;75463;50.988;11.332;2024-03-22T00:16:27;99467.91;;;4.33;89.81
84821;BME280;75463;50.988;11.332;2024-03-22T00:18:53;99460.16;;;4.32;89.35
84821;BME280;75463;50.988;11.332;2024-03-22T00:21:18;99463.31;;;4.29;89.57
84821;BME280;75463;50.988;11.332;2024-03-22T00:23:45;99462.81;;;4.32;90.00
84821;BME280;75463;50.988;11.332;2024-03-22T00:26:11;99454.56;;;4.49;90.47
84821;BME280;75463;50.988;11.332;2024-03-22T00:28:36;99456.34;;;4.44;89.84
84821;BME280;75463;50.988;11.332;2024-03-22T00:31:01;99450.19;;;4.60;90.22
84821;BME280;75463;50.988;11.332;2024-03-22T00:33:27;99453.34;;;4.57;90.11
84821;BME280;75463;50.988;11.332;2024-03-22T00:35:52;99442.59;;;4.52;90.07
84821;BME280;75463;50.988;11.332;2024-03-22T00:38:17;99443.94;;;4.49;89.41
84821;BME280;75463;50.988;11.332;2024-03-22T00:40:43;99435.44;;;4.52;89.18
84821;BME280;75463;50.988;11.332;2024-03-22T00:43:08;99418.97;;;4.55;90.42
84821;BME280;75463;50.988;11.332;2024-03-22T00:45:34;99427.34;;;4.64;90.46
84821;BME280;75463;50.988;11.332;2024-03-22T00:47:59;99431.44;;;4.71;89.44
84821;BME280;75463;50.988;11.332;2024-03-22T00:50:24;99420.69;;;4.66;89.92
84821;BME280;75463;50.988;11.332;2024-03-22T00:52:50;99412.41;;;4.63;89.53
84821;BME280;75463;50.988;11.332;2024-03-22T00:55:17;99413.22;;;4.63;89.45
84821;BME280;75463;50.988;11.332;2024-03-22T00:57:42;99401.03;;;4.67;89.88
84821;BME280;75463;50.988;11.332;2024-03-22T01:00:08;99412.72;;;4.66;89.06
84821;BME280;75463;50.988;11.332;2024-03-22T01:02:34;99402.00;;;4.61;89.52
84821;BME280;75463;50.988;11.332;2024-03-22T01:05:00;99399.34;;;4.61;89.79
84821;BME280;75463;50.988;11.332;2024-03-22T01:07:25;99391.91;;;4.63;89.56
84821;BME280;75463;50.988;11.332;2024-03-22T01:09:50;99387.41;;;4.64;88.74
84821;BME280;75463;50.988;11.332;2024-03-22T01:12:15;99392.53;;;4.70;88.85
84821;BME280;75463;50.988;11.332;2024-03-22T01:14:41;99384.03;;;4.73;89.13
84821;BME280;75463;50.988;11.332;2024-03-22T01:17:06;99387.56;;;4.79;89.03
84821;BME280;75463;50.988;11.332;2024-03-22T01:19:31;99378.88;;;4.88;88.20
84821;BME280;75463;50.988;11.332;2024-03-22T01:21:56;99382.16;;;4.95;88.28
84821;BME280;75463;50.988;11.332;2024-03-22T01:24:22;99379.25;;;4.96;87.62
84821;BME280;75463;50.988;11.332;2024-03-22T01:26:47;99365.72;;;5.03;87.66
84821;BME280;75463;50.988;11.332;2024-03-22T01:29:13;99374.28;;;5.05;87.80
84821;BME280;75463;50.988;11.332;2024-03-22T01:31:39;99370.81;;;5.04;87.15
84821;BME280;75463;50.988;11.332;2024-03-22T01:34:04;99365.22;;;5.06;87.00
84821;BME280;75463;50.988;11.332;2024-03-22T01:36:30;99358.84;;;5.07;86.76
84821;BME280;75463;50.988;11.332;2024-03-22T01:38:55;99363.34;;;5.06;87.25
84821;BME280;75463;50.988;11.332;2024-03-22T01:41:21;99356.66;;;5.04;87.34
84821;BME280;75463;50.988;11.332;2024-03-22T01:43:46;99349.78;;;5.08;87.29
84821;BME280;75463;50.988;11.332;2024-03-22T01:46:11;99340.22;;;5.12;86.92
84821;BME280;75463;50.988;11.332;2024-03-22T01:48:37;99343.44;;;5.14;87.05
84821;BME280;75463;50.988;11.332;2024-03-22T01:51:02;99346.97;;;5.19;86.96
84821;BME280;75463;50.988;11.332;2024-03-22T01:53:29;99340.06;;;5.23;86.62
84821;BME280;75463;50.988;11.332;2024-03-22T01:55:55;99335.03;;;5.27;86.45
84821;BME280;75463;50.988;11.332;2024-03-22T01:58:20;99341.69;;;5.24;86.37
84821;BME280;75463;50.988;11.332;2024-03-22T02:00:47;99338.47;;;5.22;86.69
84821;BME280;75463;50.988;11.332;2024-03-22T02:03:12;99334.16;;;5.16;87.01
84821;BME280;75463;50.988;11.332;2024-03-22T02:05:38;99322.59;;;5.06;87.29
84821;BME280;75463;50.988;11.332;2024-03-22T02:08:03;99322.88;;;5.09;87.26
84821;BME280;75463;50.988;11.332;2024-03-22T02:10:29;99319.16;;;5.10;87.17
84821;BME280;75463;50.988;11.332;2024-03-22T02:12:54;99323.75;;;5.15;86.94
84821;BME280;75463;50.988;11.332;2024-03-22T02:15:19;99316.25;;;5.12;86.95
84821;BME280;75463;50.988;11.332;2024-03-22T02:17:45;99315.47;;;5.11;86.68
84821;BME280;75463;50.988;11.332;2024-03-22T02:20:10;99305.59;;;5.12;87.07
84821;BME280;75463;50.988;11.332;2024-03-22T02:22:37;99302.38;;;5.10;86.89
84821;BME280;75463;50.988;11.332;2024-03-22T02:25:02;99309.56;;;5.09;87.00
84821;BME280;75463;50.988;11.332;2024-03-22T02:27:28;99309.28;;;5.06;86.63
84821;BME280;75463;50.988;11.332;2024-03-22T02:29:53;99310.31;;;5.05;87.45
84821;BME280;75463;50.988;11.332;2024-03-22T02:32:18;99308.63;;;4.94;87.08
84821;BME280;75463;50.988;11.332;2024-03-22T02:34:44;99298.41;;;4.86;87.16
84821;BME280;75463;50.988;11.332;2024-03-22T02:37:09;99300.78;;;4.83;87.38
84821;BME280;75463;50.988;11.332;2024-03-22T02:39:34;99303.03;;;4.69;87.82
84821;BME280;75463;50.988;11.332;2024-03-22T02:42:00;99296.44;;;4.50;88.37
84821;BME280;75463;50.988;11.332;2024-03-22T02:44:25;99308.09;;;4.45;89.12
84821;BME280;75463;50.988;11.332;2024-03-22T02:46:50;99305.13;;;4.41;88.75
84821;BME280;75463;50.988;11.332;2024-03-22T02:49:16;99305.50;;;4.49;89.15
84821;BME280;75463;50.988;11.332;2024-03-22T02:51:41;99305.44;;;4.45;89.06
84821;BME280;75463;50.988;11.332;2024-03-22T02:54:06;99293.41;;;4.42;89.03
84821;BME280;75463;50.988;11.332;2024-03-22T02:56:32;99288.66;;;4.44;89.16
84821;BME280;75463;50.988;11.332;2024-03-22T02:58:57;99296.66;;;4.44;90.12
84821;BME280;75463;50.988;11.332;2024-03-22T03:01:22;99298.06;;;4.51;89.66
84821;BME280;75463;50.988;11.332;2024-03-22T03:03:48;99282.72;;;4.63;88.97
84821;BME280;75463;50.988;11.332;2024-03-22T03:06:13;99282.19;;;4.61;89.45
84821;BME280;75463;50.988;11.332;2024-03-22T03:08:39;99276.28;;;4.59;89.38
84821;BME280;75463;50.988;11.332;2024-03-22T03:11:05;99288.06;;;4.63;89.47
84821;BME280;75463;50.988;11.332;2024-03-22T03:13:30;99281.19;;;4.67;88.83
84821;BME280;75463;50.988;11.332;2024-03-22T03:15:56;99281.72;;;4.69;88.45
84821;BME280;75463;50.988;11.332;2024-03-22T03:18:21;99277.72;;;4.67;88.02
84821;BME280;75463;50.988;11.332;2024-03-22T03:20:46;99265.75;;;4.69;88.24
84821;BME280;75463;50.988;11.332;2024-03-22T03:23:11;99261.44;;;4.63;89.06
84821;BME280;75463;50.988;11.332;2024-03-22T03:25:37;99257.16;;;4.62;88.33
84821;BME280;75463;50.988;11.332;2024-03-22T03:28:02;99259.78;;;4.57;88.55
84821;BME280;75463;50.988;11.332;2024-03-22T03:30:28;99264.50;;;4.50;89.03
84821;BME280;75463;50.988;11.332;2024-03-22T03:32:56;99251.28;;;4.34;89.11
84821;BME280;75463;50.988;11.332;2024-03-22T03:35:22;99254.06;;;4.23;89.52
84821;BME280;75463;50.988;11.332;2024-03-22T03:37:47;99254.81;;;4.18;89.29
84821;BME280;75463;50.988;11.332;2024-03-22T03:40:12;99252.53;;;4.27;89.95
84821;BME280;75463;50.988;11.332;2024-03-22T03:42:38;99239.59;;;4.35;90.06
84821;BME280;75463;50.988;11.332;2024-03-22T03:45:03;99232.94;;;4.38;90.21
84821;BME280;75463;50.988;11.332;2024-03-22T03:47:28;99227.13;;;4.41;89.56
84821;BME280;75463;50.988;11.332;2024-03-22T03:49:54;99237.25;;;4.44;88.87
84821;BME280;75463;50.988;11.332;2024-03-22T03:52:19;99233.56;;;4.45;89.46
84821;BME280;75463;50.988;11.332;2024-03-22T03:54:44;99222.97;;;4.49;89.05
84821;BME280;75463;50.988;11.332;2024-03-22T03:57:10;99232.03;;;4.53;88.46
84821;BME280;75463;50.988;11.332;2024-03-22T03:59:35;99227.22;;;4.50;88.78
84821;BME280;75463;50.988;11.332;2024-03-22T04:02:00;99222.38;;;4.43;88.52
84821;BME280;75463;50.988;11.332;2024-03-22T04:04:26;99220.50;;;4.43;87.97
84821;BME280;75463;50.988;11.332;2024-03-22T04:06:51;99231.66;;;4.40;87.91
84821;BME280;75463;50.988;11.332;2024-03-22T04:09:16;99220.13;;;4.35;88.25
84821;BME280;75463;50.988;11.332;2024-03-22T04:11:42;99212.03;;;4.25;88.70
84821;BME280;75463;50.988;11.332;2024-03-22T04:14:07;99216.91;;;4.06;88.37
84821;BME280;75463;50.988;11.332;2024-03-22T04:16:32;99212.81;;;3.99;89.91
84821;BME280;75463;50.988;11.332;2024-03-22T04:18:58;99216.81;;;3.97;89.72
84821;BME280;75463;50.988;11.332;2024-03-22T04:21:23;99213.19;;;3.86;90.44
84821;BME280;75463;50.988;11.332;2024-03-22T04:23:48;99207.53;;;3.78;91.22
84821;BME280;75463;50.988;11.332;2024-03-22T04:26:14;99202.44;;;3.76;91.07
84821;BME280;75463;50.988;11.332;2024-03-22T04:28:40;99213.88;;;3.77;91.68
84821;BME280;75463;50.988;11.332;2024-03-22T04:31:08;99219.00;;;3.83;91.97
84821;BME280;75463;50.988;11.332;2024-03-22T04:33:34;99213.56;;;3.95;91.32
84821;BME280;75463;50.988;11.332;2024-03-22T04:36:00;99205.09;;;3.97;91.91
84821;BME280;75463;50.988;11.332;2024-03-22T04:38:26;99210.22;;;4.04;90.79
84821;BME280;75463;50.988;11.332;2024-03-22T04:40:52;99201.78;;;4.12;91.19
84821;BME280;75463;50.988;11.332;2024-03-22T04:43:17;99189.06;;;4.14;90.93
84821;BME280;75463;50.988;11.332;2024-03-22T04:45:43;99181.13;;;4.19;91.15
84821;BME280;75463;50.988;11.332;2024-03-22T04:48:09;99175.88;;;4.24;89.97
84821;BME280;75463;50.988;11.332;2024-03-22T04:50:34;99171.63;;;4.28;89.46
84821;BME280;75463;50.988;11.332;2024-03-22T04:53:00;99167.16;;;4.33;89.62
84821;BME280;75463;50.988;11.332;2024-03-22T04:55:26;99172.09;;;4.46;88.40
84821;BME280;75463;50.988;11.332;2024-03-22T04:57:52;99166.81;;;4.51;89.09
84821;BME280;75463;50.988;11.332;2024-03-22T05:00:18;99161.31;;;4.62;88.65
84821;BME280;75463;50.988;11.332;2024-03-22T05:02:43;99168.34;;;4.73;88.53
84821;BME280;75463;50.988;11.332;2024-03-22T05:05:08;99159.56;;;4.73;87.81
84821;BME280;75463;50.988;11.332;2024-03-22T05:07:34;99158.16;;;4.65;88.04
84821;BME280;75463;50.988;11.332;2024-03-22T05:10:00;99142.75;;;4.72;88.13
84821;BME280;75463;50.988;11.332;2024-03-22T05:12:25;99137.75;;;4.81;87.67
84821;BME280;75463;50.988;11.332;2024-03-22T05:14:50;99141.81;;;4.88;87.75
84821;BME280;75463;50.988;11.332;2024-03-22T05:17:15;99142.13;;;4.96;86.87
84821;BME280;75463;50.988;11.332;2024-03-22T05:19:41;99131.00;;;5.04;86.40
84821;BME280;75463;50.988;11.332;2024-03-22T05:22:06;99126.00;;;5.13;86.21
84821;BME280;75463;50.988;11.332;2024-03-22T05:24:32;99126.53;;;5.15;86.14
84821;BME280;75463;50.988;11.332;2024-03-22T05:26:58;99127.66;;;5.24;86.13
84821;BME280;75463;50.988;11.332;2024-03-22T05:29:23;99118.09;;;5.33;85.76
84821;BME280;75463;50.988;11.332;2024-03-22T05:31:49;99115.53;;;5.47;85.05
84821;BME280;75463;50.988;11.332;2024-03-22T05:34:16;99121.13;;;5.51;85.14
84821;BME280;75463;50.988;11.332;2024-03-22T05:36:42;99113.16;;;5.56;85.31
84821;BME280;75463;50.988;11.332;2024-03-22T05:39:07;99116.94;;;5.70;85.00
84821;BME280;75463;50.988;11.332;2024-03-22T05:41:33;99119.41;;;5.81;84.11
84821;BME280;75463;50.988;11.332;2024-03-22T05:43:58;99111.66;;;5.80;84.74
84821;BME280;75463;50.988;11.332;2024-03-22T05:46:24;99116.22;;;5.89;84.09
84821;BME280;75463;50.988;11.332;2024-03-22T05:48:49;99114.38;;;5.95;84.25
84821;BME280;75463;50.988;11.332;2024-03-22T05:51:17;99099.72;;;6.07;83.76
84821;BME280;75463;50.988;11.332;2024-03-22T05:53:42;99100.00;;;6.15;83.47
84821;BME280;75463;50.988;11.332;2024-03-22T05:56:07;99107.25;;;6.25;83.47
84821;BME280;75463;50.988;11.332;2024-03-22T05:58:33;99110.97;;;6.34;83.13
84821;BME280;75463;50.988;11.332;2024-03-22T06:00:58;99113.38;;;6.35;82.86
84821;BME280;75463;50.988;11.332;2024-03-22T06:03:24;99104.56;;;6.45;83.17
84821;BME280;75463;50.988;11.332;2024-03-22T06:05:49;99097.09;;;6.56;82.91
84821;BME280;75463;50.988;11.332;2024-03-22T06:08:15;99094.97;;;6.58;82.78
84821;BME280;75463;50.988;11.332;2024-03-22T06:10:45;99094.97;;;6.68;82.75
84821;BME280;75463;50.988;11.332;2024-03-22T06:13:10;99092.28;;;6.73;82.72
84821;BME280;75463;50.988;11.332;2024-03-22T06:15:35;99100.28;;;6.88;82.28
84821;BME280;75463;50.988;11.332;2024-03-22T06:18:01;99102.41;;;6.96;81.40
84821;BME280;75463;50.988;11.332;2024-03-22T06:20:26;99099.16;;;7.19;80.69
84821;BME280;75463;50.988;11.332;2024-03-22T06:22:51;99103.94;;;7.27;80.92
84821;BME280;75463;50.988;11.332;2024-03-22T06:25:17;99102.00;;;7.42;80.61
84821;BME280;75463;50.988;11.332;2024-03-22T06:27:42;99100.13;;;7.47;80.53
84821;BME280;75463;50.988;11.332;2024-03-22T06:30:07;99092.81;;;7.68;79.55
84821;BME280;75463;50.988;11.332;2024-03-22T06:32:33;99094.34;;;7.84;80.04
84821;BME280;75463;50.988;11.332;2024-03-22T06:34:58;99097.13;;;8.17;79.32
84821;BME280;75463;50.988;11.332;2024-03-22T06:37:23;99102.13;;;8.28;78.69
84821;BME280;75463;50.988;11.332;2024-03-22T06:39:49;99095.31;;;8.46;78.21
84821;BME280;75463;50.988;11.332;2024-03-22T06:42:14;99085.84;;;8.58;77.21
84821;BME280;75463;50.988;11.332;2024-03-22T06:44:42;99088.16;;;8.69;77.83
84821;BME280;75463;50.988;11.332;2024-03-22T06:47:07;99092.03;;;8.82;76.86
84821;BME280;75463;50.988;11.332;2024-03-22T06:49:32;99095.75;;;8.86;76.23
84821;BME280;75463;50.988;11.332;2024-03-22T06:51:58;99089.56;;;8.90;77.00
84821;BME280;75463;50.988;11.332;2024-03-22T06:54:24;99082.50;;;8.99;76.69
84821;BME280;75463;50.988;11.332;2024-03-22T06:56:49;99080.16;;;9.16;76.18
84821;BME280;75463;50.988;11.332;2024-03-22T06:59:14;99074.31;;;9.37;75.14
84821;BME280;75463;50.988;11.332;2024-03-22T07:01:40;99071.00;;;9.45;74.67
84821;BME280;75463;50.988;11.332;2024-03-22T07:04:05;99071.59;;;9.60;75.25
84821;BME280;75463;50.988;11.332;2024-03-22T07:06:30;99070.97;;;9.68;74.36
84821;BME280;75463;50.988;11.332;2024-03-22T07:08:55;99067.06;;;9.79;73.62
84821;BME280;75463;50.988;11.332;2024-03-22T07:11:21;99073.31;;;9.93;73.18
84821;BME280;75463;50.988;11.332;2024-03-22T07:13:47;99060.41;;;10.13;71.67
84821;BME280;75463;50.988;11.332;2024-03-22T07:16:12;99066.53;;;10.19;71.88
84821;BME280;75463;50.988;11.332;2024-03-22T07:18:38;99053.66;;;10.34;72.24
84821;BME280;75463;50.988;11.332;2024-03-22T07:21:03;99066.13;;;10.44;70.81
84821;BME280;75463;50.988;11.332;2024-03-22T07:23:29;99063.38;;;10.48;70.81
84821;BME280;75463;50.988;11.332;2024-03-22T07:25:55;99055.22;;;10.53;70.72
84821;BME280;75463;50.988;11.332;2024-03-22T07:28:20;99052.16;;;10.60;70.40
84821;BME280;75463;50.988;11.332;2024-03-22T07:30:46;99047.59;;;10.74;70.72
84821;BME280;75463;50.988;11.332;2024-03-22T07:33:12;99046.63;;;10.83;69.59
84821;BME280;75463;50.988;11.332;2024-03-22T07:35:43;99050.94;;;10.98;69.24
84821;BME280;75463;50.988;11.332;2024-03-22T07:38:08;99047.06;;;11.03;68.41
84821;BME280;75463;50.988;11.332;2024-03-22T07:40:33;99052.75;;;11.15;68.06
84821;BME280;75463;50.988;11.332;2024-03-22T07:42:59;99051.66;;;11.16;67.66
84821;BME280;75463;50.988;11.332;2024-03-22T07:45:24;99042.41;;;11.22;68.12
84821;BME280;75463;50.988;11.332;2024-03-22T07:47:50;99051.88;;;11.33;66.66
84821;BME280;75463;50.988;11.332;2024-03-22T07:50:15;99037.53;;;11.38;66.81
84821;BME280;75463;50.988;11.332;2024-03-22T07:52:41;99030.41;;;11.42;66.93
84821;BME280;75463;50.988;11.332;2024-03-22T07:55:06;99038.13;;;11.48;66.97
84821;BME280;75463;50.988;11.332;2024-03-22T07:57:32;99042.81;;;11.69;66.45
84821;BME280;75463;50.988;11.332;2024-03-22T07:59:57;99042.13;;;11.99;65.72
84821;BME280;75463;50.988;11.332;2024-03-22T08:02:23;99038.03;;;12.37;63.30
84821;BME280;75463;50.988;11.332;2024-03-22T08:04:49;99037.09;;;12.85;62.97
84821;BME280;75463;50.988;11.332;2024-03-22T08:07:14;99036.97;;;13.20;60.23
84821;BME280;75463;50.988;11.332;2024-03-22T08:09:40;99038.19;;;13.52;58.60
84821;BME280;75463;50.988;11.332;2024-03-22T08:12:05;99036.69;;;13.85;57.38
84821;BME280;75463;50.988;11.332;2024-03-22T08:14:31;99037.16;;;14.04;56.49
84821;BME280;75463;50.988;11.332;2024-03-22T08:16:57;99029.41;;;14.11;56.60
84821;BME280;75463;50.988;11.332;2024-03-22T08:19:22;99031.63;;;14.00;56.51
84821;BME280;75463;50.988;11.332;2024-03-22T08:21:47;99032.28;;;14.40;55.19
84821;BME280;75463;50.988;11.332;2024-03-22T08:24:13;99014.63;;;14.34;54.88
84821;BME280;75463;50.988;11.332;2024-03-22T08:26:38;99011.59;;;14.18;55.01
84821;BME280;75463;50.988;11.332;2024-03-22T08:29:03;99021.47;;;14.23;54.69
84821;BME280;75463;50.988;11.332;2024-03-22T08:31:29;99017.19;;;14.13;55.90
84821;BME280;75463;50.988;11.332;2024-03-22T08:33:54;99005.03;;;13.94;55.48
84821;BME280;75463;50.988;11.332;2024-03-22T08:36:21;99004.63;;;14.09;54.99
84821;BME280;75463;50.988;11.332;2024-03-22T08:38:47;98994.59;;;14.18;54.96
84821;BME280;75463;50.988;11.332;2024-03-22T08:41:12;99003.00;;;14.16;54.96
84821;BME280;75463;50.988;11.332;2024-03-22T08:43:37;99010.31;;;14.16;54.63
84821;BME280;75463;50.988;11.332;2024-03-22T08:46:03;99000.31;;;14.16;54.68
84821;BME280;75463;50.988;11.332;2024-03-22T08:48:28;98995.31;;;14.01;55.06
84821;BME280;75463;50.988;11.332;2024-03-22T08:50:54;98988.16;;;13.97;55.30
84821;BME280;75463;50.988;11.332;2024-03-22T08:53:19;98986.28;;;14.14;54.90
84821;BME280;75463;50.988;11.332;2024-03-22T08:55:48;98983.75;;;14.26;54.93
84821;BME280;75463;50.988;11.332;2024-03-22T08:58:14;98976.59;;;14.22;55.24
84821;BME280;75463;50.988;11.332;2024-03-22T09:00:41;98982.47;;;14.32;55.28
84821;BME280;75463;50.988;11.332;2024-03-22T09:03:06;98984.22;;;14.28;55.63
84821;BME280;75463;50.988;11.332;2024-03-22T09:05:32;98975.34;;;14.19;54.94
84821;BME280;75463;50.988;11.332;2024-03-22T09:07:58;98979.00;;;14.23;55.20
84821;BME280;75463;50.988;11.332;2024-03-22T09:10:24;98981.84;;;14.27;54.92
84821;BME280;75463;50.988;11.332;2024-03-22T09:12:49;98977.72;;;14.29;55.48
84821;BME280;75463;50.988;11.332;2024-03-22T09:15:14;98974.63;;;14.48;54.43
84821;BME280;75463;50.988;11.332;2024-03-22T09:17:40;98961.94;;;14.40;54.03
84821;BME280;75463;50.988;11.332;2024-03-22T09:20:05;98960.28;;;14.72;53.52
84821;BME280;75463;50.988;11.332;2024-03-22T09:22:32;98963.31;;;14.71;53.82
84821;BME280;75463;50.988;11.332;2024-03-22T09:24:58;98957.44;;;14.98;53.19
84821;BME280;75463;50.988;11.332;2024-03-22T09:27:24;98960.78;;;15.03;53.08
84821;BME280;75463;50.988;11.332;2024-03-22T09:29:49;98953.41;;;15.12;52.57
84821;BME280;75463;50.988;11.332;2024-03-22T09:32:14;98947.94;;;15.29;52.65
84821;BME280;75463;50.988;11.332;2024-03-22T09:34:40;98940.03;;;15.44;52.39
84821;BME280;75463;50.988;11.332;2024-03-22T09:37:05;98935.97;;;15.58;51.48
84821;BME280;75463;50.988;11.332;2024-03-22T09:39:31;98930.00;;;15.85;51.52
84821;BME280;75463;50.988;11.332;2024-03-22T09:41:58;98935.88;;;16.28;50.24
84821;BME280;75463;50.988;11.332;2024-03-22T09:44:27;98939.56;;;17.23;47.66
84821;BME280;75463;50.988;11.332;2024-03-22T09:46:52;98932.41;;;18.05;45.95
84821;BME280;75463;50.988;11.332;2024-03-22T09:49:18;98922.75;;;18.08;45.61
84821;BME280;75463;50.988;11.332;2024-03-22T09:51:43;98920.03;;;18.20;45.21
84821;BME280;75463;50.988;11.332;2024-03-22T09:54:09;98909.63;;;18.53;44.53
84821;BME280;75463;50.988;11.332;2024-03-22T09:56:39;98919.97;;;18.32;45.65
84821;BME280;75463;50.988;11.332;2024-03-22T09:59:08;98900.25;;;18.50;45.25
84821;BME280;75463;50.988;11.332;2024-03-22T10:01:34;98900.25;;;18.65;44.56
84821;BME280;75463;50.988;11.332;2024-03-22T10:04:00;98900.13;;;18.47;45.47
84821;BME280;75463;50.988;11.332;2024-03-22T10:06:26;98890.94;;;18.24;46.11
84821;BME280;75463;50.988;11.332;2024-03-22T10:08:51;98885.47;;;18.51;46.43
84821;BME280;75463;50.988;11.332;2024-03-22T10:11:16;98881.75;;;18.28;46.57
84821;BME280;75463;50.988;11.332;2024-03-22T10:13:43;98884.19;;;18.18;46.61
84821;BME280;75463;50.988;11.332;2024-03-22T10:16:09;98885.34;;;18.17;46.74
84821;BME280;75463;50.988;11.332;2024-03-22T10:18:34;98864.47;;;18.67;45.66
84821;BME280;75463;50.988;11.332;2024-03-22T10:21:03;98869.50;;;18.65;45.95
84821;BME280;75463;50.988;11.332;2024-03-22T10:23:30;98875.44;;;18.24;46.78
84821;BME280;75463;50.988;11.332;2024-03-22T10:25:57;98859.91;;;18.13;47.09
84821;BME280;75463;50.988;11.332;2024-03-22T10:28:23;98863.97;;;17.92;47.65
84821;BME280;75463;50.988;11.332;2024-03-22T10:30:50;98860.16;;;17.54;48.51
84821;BME280;75463;50.988;11.332;2024-03-22T10:33:15;98864.84;;;17.68;48.99
84821;BME280;75463;50.988;11.332;2024-03-22T10:35:43;98870.16;;;17.77;48.91
84821;BME280;75463;50.988;11.332;2024-03-22T10:38:09;98868.44;;;17.84;48.67
84821;BME280;75463;50.988;11.332;2024-03-22T10:40:41;98858.16;;;17.66;49.36
84821;BME280;75463;50.988;11.332;2024-03-22T10:43:09;98858.03;;;17.23;50.48
84821;BME280;75463;50.988;11.332;2024-03-22T10:45:34;98853.06;;;17.64;49.40
84821;BME280;75463;50.988;11.332;2024-03-22T10:48:01;98855.91;;;17.95;48.62
84821;BME280;75463;50.988;11.332;2024-03-22T10:50:31;98847.94;;;18.02;48.55
84821;BME280;75463;50.988;11.332;2024-03-22T10:53:02;98848.97;;;18.25;48.85
84821;BME280;75463;50.988;11.332;2024-03-22T10:55:42;98847.25;;;18.48;47.53
84821;BME280;75463;50.988;11.332;2024-03-22T10:58:15;98847.94;;;18.02;48.69
84821;BME280;75463;50.988;11.332;2024-03-22T11:00:41;98840.44;;;17.84;49.42
84821;BME280;75463;50.988;11.332;2024-03-22T11:03:08;98838.69;;;17.64;50.01
84821;BME280;75463;50.988;11.332;2024-03-22T11:05:33;98844.75;;;17.46;50.26
84821;BME280;75463;50.988;11.332;2024-03-22T11:08:07;98845.44;;;17.43;50.42
84821;BME280;75463;50.988;11.332;2024-03-22T11:10:34;98835.00;;;17.45;50.31
84821;BME280;75463;50.988;11.332;2024-03-22T11:13:02;98819.75;;;17.67;49.67
84821;BME280;75463;50.988;11.332;2024-03-22T11:15:29;98818.28;;;17.31;50.46
84821;BME280;75463;50.988;11.332;2024-03-22T11:17:54;98825.75;;;17.22;50.68
84821;BME280;75463;50.988;11.332;2024-03-22T11:20:20;98830.16;;;17.38;50.09
84821;BME280;75463;50.988;11.332;2024-03-22T11:22:45;98816.81;;;17.21;51.00
84821;BME280;75463;50.988;11.332;2024-03-22T11:25:10;98803.88;;;17.18;50.71
84821;BME280;75463;50.988;11.332;2024-03-22T11:27:35;98798.66;;;17.37;50.70
84821;BME280;75463;50.988;11.332;2024-03-22T11:30:01;98788.25;;;17.27;50.41
84821;BME280;75463;50.988;11.332;2024-03-22T11:32:26;98796.28;;;17.36;50.31
84821;BME280;75463;50.988;11.332;2024-03-22T11:34:53;98794.38;;;17.12;50.80
84821;BME280;75463;50.988;11.332;2024-03-22T11:37:19;98793.81;;;17.07;50.47
84821;BME280;75463;50.988;11.332;2024-03-22T11:39:44;98786.31;;;17.16;50.71
84821;BME280;75463;50.988;11.332;2024-03-22T11:42:10;98781.25;;;17.26;50.85
84821;BME280;75463;50.988;11.332;2024-03-22T11:44:37;98777.25;;;17.36;50.57
84821;BME280;75463;50.988;11.332;2024-03-22T11:47:04;98769.31;;;17.43;50.01
84821;BME280;75463;50.988;11.332;2024-03-22T11:49:29;98769.03;;;17.48;49.67
84821;BME280;75463;50.988;11.332;2024-03-22T11:51:58;98760.72;;;17.41;50.10
84821;BME280;75463;50.988;11.332;2024-03-22T11:54:23;98761.44;;;17.53;49.99
84821;BME280;75463;50.988;11.332;2024-03-22T11:56:49;98756.44;;;17.82;48.76
84821;BME280;75463;50.988;11.332;2024-03-22T11:59:15;98762.16;;;18.08;48.17
84821;BME280;75463;50.988;11.332;2024-03-22T12:01:40;98746.03;;;18.30;47.71
84821;BME280;75463;50.988;11.332;2024-03-22T12:04:06;98736.28;;;18.29;47.87
84821;BME280;75463;50.988;11.332;2024-03-22T12:06:34;98730.06;;;18.44;47.51
84821;BME280;75463;50.988;11.332;2024-03-22T12:09:00;98729.25;;;18.44;47.48
84821;BME280;75463;50.988;11.332;2024-03-22T12:11:25;98727.03;;;18.64;46.93
84821;BME280;75463;50.988;11.332;2024-03-22T12:13:50;98732.06;;;18.47;47.04
84821;BME280;75463;50.988;11.332;2024-03-22T12:16:15;98720.22;;;18.40;46.88
84821;BME280;75463;50.988;11.332;2024-03-22T12:18:41;98713.09;;;18.51;46.56
84821;BME280;75463;50.988;11.332;2024-03-22T12:21:07;98701.81;;;18.52;46.83
84821;BME280;75463;50.988;11.332;2024-03-22T12:23:32;98712.16;;;18.77;46.39
84821;BME280;75463;50.988;11.332;2024-03-22T12:25:57;98698.44;;;19.08;46.04
84821;BME280;75463;50.988;11.332;2024-03-22T12:28:23;98705.91;;;18.77;45.55
84821;BME280;75463;50.988;11.332;2024-03-22T12:30:49;98702.69;;;18.71;46.00
84821;BME280;75463;50.988;11.332;2024-03-22T12:33:15;98695.66;;;18.70;45.79
84821;BME280;75463;50.988;11.332;2024-03-22T12:35:40;98695.16;;;18.50;46.15
84821;BME280;75463;50.988;11.332;2024-03-22T12:38:06;98691.56;;;18.80;44.88
84821;BME280;75463;50.988;11.332;2024-03-22T12:40:33;98676.56;;;18.70;44.70
84821;BME280;75463;50.988;11.332;2024-03-22T12:42:59;98685.69;;;18.78;44.53
84821;BME280;75463;50.988;11.332;2024-03-22T12:45:25;98677.47;;;18.59;45.47
84821;BME280;75463;50.988;11.332;2024-03-22T12:47:50;98673.53;;;18.56;45.38